Terminal Aerodrome Forecast
Issued by NWS Salt Lake City, UT

Home | Current Version | Previous Version | Text Only | Print | Product List | Glossary On
Versions: 1 2 3 4 5 6 7 8 9 10 11 12 13 14 15 16 17 18 19 20 21 22 23 24 25 26 27 28 29 30 31 32 33 34 35
000
FTUS45 KSLC 281120
TAFSLC
TAF
KSLC 281120Z 2812/0118 14006KT P6SM BKN060 BKN120
     FM281600 16010KT P6SM VCSH SCT020 BKN040
     FM281800 32012G20KT 2SM -SN BR SCT010 BKN025
     FM010000 30010KT P6SM VCSH SCT020 BKN040
     FM010600 30005KT P6SM SCT060 BKN120=

USA.gov is the U.S. government's official web portal to all federal, state and local government web resources and services.